Time;durP1;ratioP1;P1;durP2;ratioP2;P2;SDS_P1;SDS_P2;PMS_P1;PMS_P2;Temp;Humidity;BMP_temperature;BMP_pressure;BME280_temperature;BME280_humidity;BME280_pressure;Samples;Min_cycle;Max_cycle;Signal;HPM_P1;HPM_P2
2023/11/22 00:00:13;;;;;;;0.73;0.73;;;;;;;12.38;87.22;101286.09;7392975;19;20010;-61
2023/11/22 00:02:39;;;;;;;3.35;0.95;;;;;;;11.63;98.19;101293.38;7392488;19;20011;-61
2023/11/22 00:05:06;;;;;;;0.15;0.15;;;;;;;11.84;100.00;101286.38;7392798;19;20010;-62
2023/11/22 00:07:32;;;;;;;0.40;0.40;;;;;;;11.02;100.00;101281.78;7392032;19;20015;-63
2023/11/22 00:10:01;;;;;;;0.73;0.65;;;;;;;10.90;100.00;101271.38;7392189;19;20041;-63
2023/11/22 00:12:27;;;;;;;0.90;0.77;;;;;;;10.83;100.00;101272.38;7391777;19;20010;-62
2023/11/22 00:14:54;;;;;;;0.70;0.70;;;;;;;10.79;100.00;101273.69;7392865;19;20031;-61
2023/11/22 00:17:21;;;;;;;1.02;0.93;;;;;;;10.72;100.00;101276.72;7392900;19;20074;-61
2023/11/22 00:19:47;;;;;;;1.63;1.15;;;;;;;10.68;100.00;101280.38;7401673;19;20014;-60
2023/11/22 00:22:14;;;;;;;0.55;0.55;;;;;;;10.68;100.00;101284.41;7399668;19;20013;-61
2023/11/22 00:24:41;;;;;;;0.25;0.25;;;;;;;10.66;100.00;101277.25;7399252;19;20362;-61
2023/11/22 00:27:08;;;;;;;2.20;0.90;;;;;;;13.03;100.00;101263.72;7399260;19;20010;-61
2023/11/22 00:29:34;;;;;;;1.27;0.50;;;;;;;14.59;100.00;101242.75;7401971;19;20007;-61
2023/11/22 00:32:00;;;;;;;2.60;0.60;;;;;;;11.49;100.00;101259.59;7396521;19;20010;-60
2023/11/22 00:34:26;;;;;;;0.30;0.30;;;;;;;11.28;100.00;101255.50;7401812;19;20015;-61
2023/11/22 00:36:53;;;;;;;1.20;0.82;;;;;;;11.50;100.00;101250.75;7399732;19;20019;-60
2023/11/22 00:39:19;;;;;;;0.55;0.20;;;;;;;25.69;57.54;101224.91;7402550;19;20074;-61
2023/11/22 00:41:45;;;;;;;1.55;1.45;;;;;;;14.38;77.29;101249.31;7398741;19;20014;-60
2023/11/22 00:44:12;;;;;;;0.20;0.20;;;;;;;12.09;100.00;101264.75;7397261;19;20052;-60
2023/11/22 00:46:38;;;;;;;0.25;0.25;;;;;;;11.61;100.00;101256.78;7396337;19;20366;-61
2023/11/22 00:49:04;;;;;;;0.98;0.85;;;;;;;11.45;100.00;101259.72;7399499;19;20041;-60
2023/11/22 00:51:31;;;;;;;0.30;0.30;;;;;;;11.38;100.00;101259.94;7398121;19;20015;-60
2023/11/22 00:53:59;;;;;;;1.15;0.77;;;;;;;11.33;100.00;101238.16;7398432;19;20112;-60
2023/11/22 00:56:26;;;;;;;4.05;1.05;;;;;;;11.31;100.00;101249.00;7398453;19;20061;-61
2023/11/22 00:58:53;;;;;;;0.47;0.45;;;;;;;11.30;100.00;101247.44;7399157;19;20459;-60
2023/11/22 01:01:19;;;;;;;5.80;1.23;;;;;;;11.34;100.00;101236.97;7398834;19;20351;-60
2023/11/22 01:03:46;;;;;;;0.90;0.28;;;;;;;11.35;100.00;101244.88;7401054;19;20018;-60
2023/11/22 01:06:13;;;;;;;3.15;1.40;;;;;;;11.35;100.00;101244.88;7396928;19;20015;-60
2023/11/22 01:08:40;;;;;;;0.82;0.50;;;;;;;11.35;100.00;101246.88;7400019;19;20019;-60
2023/11/22 01:11:07;;;;;;;3.17;0.95;;;;;;;11.87;100.00;101243.59;7396366;19;20074;-61
2023/11/22 01:13:40;;;;;;;0.70;0.70;;;;;;;11.49;100.00;101238.06;7395559;19;20018;-61
2023/11/22 01:16:10;;;;;;;3.65;0.55;;;;;;;11.44;100.00;101235.81;7397655;19;20031;-61
2023/11/22 01:18:36;;;;;;;6.15;1.23;;;;;;;11.40;100.00;101238.75;7396915;19;20018;-61
2023/11/22 01:21:05;;;;;;;2.28;1.05;;;;;;;11.36;100.00;101245.66;7398408;19;20010;-61
2023/11/22 01:23:32;;;;;;;1.08;0.85;;;;;;;23.22;51.88;101215.16;7397489;19;20015;-61
2023/11/22 01:25:59;;;;;;;1.15;0.85;;;;;;;17.87;57.93;101237.63;7395477;19;20014;-61
2023/11/22 01:28:27;;;;;;;9.65;1.08;;;;;;;16.35;78.77;101231.25;7395869;19;20010;-61
2023/11/22 01:30:54;;;;;;;0.73;0.73;;;;;;;13.45;91.91;101236.88;7397021;19;20765;-61
2023/11/22 01:33:23;;;;;;;1.00;0.55;;;;;;;12.09;100.00;101236.81;7395128;19;20011;-61
2023/11/22 01:35:49;;;;;;;0.85;0.77;;;;;;;11.70;100.00;101242.97;7396740;19;20462;-61
2023/11/22 01:38:16;;;;;;;0.45;0.45;;;;;;;11.53;100.00;101238.72;7395133;19;20470;-61
2023/11/22 01:40:46;;;;;;;0.40;0.40;;;;;;;11.46;100.00;101233.38;7397228;19;20014;-61
2023/11/22 01:43:17;;;;;;;0.50;0.50;;;;;;;11.44;100.00;101241.41;7395696;19;20026;-61
2023/11/22 01:45:44;;;;;;;0.57;0.50;;;;;;;11.43;100.00;101237.81;7396757;19;20035;-60
2023/11/22 01:48:12;;;;;;;4.25;0.50;;;;;;;11.43;100.00;101234.28;7394865;19;20042;-60
2023/11/22 01:50:42;;;;;;;0.82;0.63;;;;;;;11.42;100.00;101229.91;7395570;19;20414;-60
2023/11/22 01:53:11;;;;;;;0.57;0.57;;;;;;;11.42;100.00;101213.19;7394883;19;20021;-62
2023/11/22 01:55:39;;;;;;;0.77;0.50;;;;;;;11.45;100.00;101203.94;7397238;19;20017;-61
2023/11/22 01:58:06;;;;;;;2.15;0.88;;;;;;;11.43;100.00;101195.97;7399308;19;20018;-61
2023/11/22 02:00:45;;;;;;;1.65;1.05;;;;;;;11.44;100.00;101199.56;7393935;19;21117;-61
2023/11/22 02:03:11;;;;;;;1.30;1.02;;;;;;;11.50;100.00;101210.94;7397860;19;20013;-61
2023/11/22 02:05:42;;;;;;;0.35;0.35;;;;;;;11.49;100.00;101207.38;7394559;19;20036;-61
2023/11/22 02:08:13;;;;;;;2.13;1.63;;;;;;;11.54;100.00;101212.41;7396248;19;20473;-61
2023/11/22 02:10:40;;;;;;;0.75;0.50;;;;;;;11.55;100.00;101208.38;7393629;19;20010;-62
2023/11/22 02:13:07;;;;;;;0.47;0.47;;;;;;;11.54;100.00;101206.03;7394409;19;20478;-61
2023/11/22 02:15:34;;;;;;;2.17;0.70;;;;;;;11.54;100.00;101204.03;7397895;19;20011;-61
2023/11/22 02:18:02;;;;;;;0.40;0.35;;;;;;;11.59;100.00;101200.66;7395071;19;20038;-61
2023/11/22 02:20:30;;;;;;;3.40;1.40;;;;;;;11.61;100.00;101203.75;7394989;19;20006;-61
2023/11/22 02:22:56;;;;;;;0.30;0.30;;;;;;;11.66;100.00;101203.22;7393850;19;20015;-61
2023/11/22 02:25:23;;;;;;;0.57;0.57;;;;;;;11.68;100.00;101213.94;7395101;19;20123;-61
2023/11/22 02:27:49;;;;;;;0.30;0.30;;;;;;;11.67;100.00;101207.59;7399550;19;20018;-61
2023/11/22 02:30:16;;;;;;;0.32;0.32;;;;;;;11.68;100.00;101195.19;7394276;19;20360;-61
2023/11/22 02:32:42;;;;;;;2.85;0.75;;;;;;;11.74;100.00;101187.00;7394917;19;20018;-61
2023/11/22 02:35:09;;;;;;;0.40;0.30;;;;;;;11.77;100.00;101172.16;7395665;19;20014;-61
2023/11/22 02:37:35;;;;;;;0.75;0.75;;;;;;;11.79;100.00;101190.03;7394955;19;20011;-61
2023/11/22 02:40:18;;;;;;;1.50;0.57;;;;;;;11.77;100.00;101186.91;7393617;19;20508;-61
2023/11/22 02:42:52;;;;;;;0.43;0.43;;;;;;;11.75;100.00;101189.38;7393317;19;20018;-61
2023/11/22 02:45:22;;;;;;;1.95;1.65;;;;;;;12.72;100.00;101188.22;7394390;19;20331;-61
2023/11/22 02:47:49;;;;;;;2.83;0.90;;;;;;;12.28;100.00;101186.72;7393589;19;20462;-61
2023/11/22 02:50:16;;;;;;;3.00;0.65;;;;;;;20.76;56.85;101176.22;7393189;19;20038;-61
2023/11/22 02:52:43;;;;;;;0.30;0.30;;;;;;;16.65;82.35;101195.53;7393706;19;20010;-61
2023/11/22 02:55:09;;;;;;;5.28;0.63;;;;;;;24.51;68.87;101178.97;7395554;19;20031;-61
2023/11/22 02:57:36;;;;;;;1.45;0.70;;;;;;;24.28;43.27;101181.38;7397534;19;20018;-61
2023/11/22 03:00:04;;;;;;;0.30;0.30;;;;;;;26.75;45.59;101167.03;7397558;19;20044;-61
2023/11/22 03:02:31;;;;;;;1.95;0.85;;;;;;;24.87;44.99;101180.22;7394716;19;20007;-61
2023/11/22 03:04:58;;;;;;;0.35;0.35;;;;;;;34.71;33.35;101160.50;7392990;19;20018;-61
2023/11/22 03:07:25;;;;;;;0.40;0.40;;;;;;;27.79;39.18;101159.81;7392204;19;20400;-62
2023/11/22 03:09:52;;;;;;;0.50;0.50;;;;;;;35.79;30.28;101150.69;7396261;19;20087;-61
2023/11/22 03:12:23;;;;;;;2.83;1.38;;;;;;;36.37;28.29;101144.34;7391596;19;20010;-61
2023/11/22 03:14:49;;;;;;;0.47;0.40;;;;;;;36.25;27.71;101144.34;7394256;19;20006;-61
2023/11/22 03:17:15;;;;;;;1.40;0.35;;;;;;;37.40;26.41;101137.06;7394072;19;20017;-61
2023/11/22 03:19:41;;;;;;;0.30;0.30;;;;;;;35.10;26.89;101135.78;7395426;19;20014;-61
2023/11/22 03:22:07;;;;;;;0.20;0.13;;;;;;;33.62;29.64;101123.50;7391738;19;20042;-61
2023/11/22 03:24:35;;;;;;;0.50;0.25;;;;;;;25.87;37.45;101144.88;7392797;19;20017;-61
2023/11/22 03:27:01;;;;;;;0.55;0.47;;;;;;;20.78;53.63;101156.66;7391685;19;20099;-61
2023/11/22 03:29:27;;;;;;;0.20;0.20;;;;;;;11.21;100.00;101177.63;7395596;19;20014;-61
2023/11/22 03:31:54;;;;;;;6.90;0.73;;;;;;;9.80;100.00;101182.56;7391632;19;20006;-61
2023/11/22 03:34:21;;;;;;;0.88;0.88;;;;;;;30.53;42.22;101151.31;7396853;19;20049;-61
2023/11/22 03:36:48;;;;;;;0.40;0.40;;;;;;;35.22;31.06;101133.72;7393422;19;20018;-61
2023/11/22 03:39:15;;;;;;;1.02;0.43;;;;;;;34.83;31.37;101138.19;7395543;19;20015;-61
2023/11/22 03:41:42;;;;;;;0.17;0.17;;;;;;;37.86;26.72;101130.31;7391094;19;20007;-61
2023/11/22 03:44:09;;;;;;;1.00;0.85;;;;;;;38.55;25.27;101121.19;7392655;19;20014;-61
2023/11/22 03:46:36;;;;;;;0.43;0.40;;;;;;;38.50;24.70;101127.44;7392310;19;20028;-61
2023/11/22 03:49:03;;;;;;;0.88;0.47;;;;;;;38.58;24.22;101122.81;7395178;19;20463;-62
2023/11/22 03:51:30;;;;;;;0.38;0.38;;;;;;;29.74;31.54;101121.25;7392237;19;20036;-62
2023/11/22 03:53:57;;;;;;;0.20;0.20;;;;;;;32.36;28.43;101111.41;7392423;19;20010;-63
2023/11/22 03:56:23;;;;;;;1.20;0.88;;;;;;;38.20;25.03;101103.19;7401163;19;20007;-62
2023/11/22 03:58:49;;;;;;;0.20;0.20;;;;;;;38.57;24.03;101092.16;7400289;19;20014;-61
2023/11/22 04:01:19;;;;;;;0.57;0.38;;;;;;;38.87;24.02;101098.16;7400324;19;20006;-61
2023/11/22 04:03:45;;;;;;;0.13;0.13;;;;;;;23.22;38.46;101109.97;7402151;19;20838;-61
2023/11/22 04:06:11;;;;;;;0.40;0.40;;;;;;;18.93;44.09;101118.19;7399521;19;20035;-61
2023/11/22 04:08:37;;;;;;;0.10;0.10;;;;;;;11.01;100.00;101143.63;7401351;19;20389;-60
2023/11/22 04:11:05;;;;;;;0.10;0.10;;;;;;;8.79;100.00;101147.75;7399873;19;20006;-60
2023/11/22 04:13:31;;;;;;;0.20;0.20;;;;;;;11.31;100.00;101131.88;7397713;19;20017;-60
2023/11/22 04:15:57;;;;;;;1.23;0.82;;;;;;;8.59;100.00;101138.72;7398991;19;20018;-60
2023/11/22 04:18:24;;;;;;;1.10;0.22;;;;;;;9.51;100.00;101142.00;7400142;19;20017;-60
2023/11/22 04:20:51;;;;;;;0.95;0.45;;;;;;;11.34;100.00;101130.97;7399239;19;20007;-60
2023/11/22 04:23:17;;;;;;;0.82;0.82;;;;;;;9.62;100.00;101131.41;7400479;19;20011;-63
2023/11/22 04:25:43;;;;;;;0.30;0.30;;;;;;;10.89;100.00;101127.69;7399228;19;20467;-63
2023/11/22 04:28:10;;;;;;;0.63;0.63;;;;;;;8.46;100.00;101148.91;7399619;19;20015;-64
2023/11/22 04:30:36;;;;;;;0.90;0.65;;;;;;;11.12;100.00;101138.47;7399675;19;20376;-60
2023/11/22 04:33:02;;;;;;;0.52;0.35;;;;;;;11.78;100.00;101140.25;7399945;19;20035;-61
2023/11/22 04:35:28;;;;;;;0.57;0.57;;;;;;;9.02;100.00;101138.50;7400000;19;20066;-60
2023/11/22 04:37:55;;;;;;;1.00;0.22;;;;;;;8.00;100.00;101137.94;7399174;19;20539;-60
2023/11/22 04:40:21;;;;;;;0.40;0.40;;;;;;;8.10;100.00;101128.66;7399395;19;20017;-60
2023/11/22 04:42:48;;;;;;;0.25;0.25;;;;;;;7.24;100.00;101117.59;7399268;19;20015;-60
2023/11/22 04:45:14;;;;;;;0.20;0.20;;;;;;;7.48;100.00;101105.28;7399197;19;20031;-60
2023/11/22 04:47:40;;;;;;;0.52;0.43;;;;;;;8.59;100.00;101104.59;7399075;19;20010;-61
2023/11/22 04:50:06;;;;;;;0.10;0.10;;;;;;;6.80;100.00;101098.53;7403071;19;20006;-60
2023/11/22 04:52:33;;;;;;;0.22;0.22;;;;;;;5.98;100.00;101107.19;7397776;19;20319;-60
2023/11/22 04:54:59;;;;;;;0.10;0.10;;;;;;;5.80;100.00;101114.91;7399157;19;20014;-60
2023/11/22 04:57:26;;;;;;;0.17;0.17;;;;;;;6.58;100.00;101102.84;7401582;19;20059;-60
2023/11/22 04:59:53;;;;;;;0.50;0.50;;;;;;;5.87;100.00;101103.75;7402174;19;20049;-60
2023/11/22 05:02:19;;;;;;;0.28;0.28;;;;;;;6.48;100.00;101087.16;7397560;19;20039;-60
2023/11/22 05:04:48;;;;;;;0.32;0.32;;;;;;;6.27;100.00;101093.00;7400784;19;20008;-60
2023/11/22 05:07:15;;;;;;;0.30;0.30;;;;;;;14.89;100.00;101069.88;7398105;19;20021;-60
2023/11/22 05:09:43;;;;;;;0.28;0.13;;;;;;;7.38;100.00;101088.84;7400532;19;20011;-60
2023/11/22 05:12:10;;;;;;;1.20;0.38;;;;;;;8.66;100.00;101087.78;7397767;19;20022;-60
2023/11/22 05:14:37;;;;;;;0.10;0.10;;;;;;;9.21;100.00;101081.25;7398765;19;20014;-61
2023/11/22 05:20:09;;;;;;;0.10;0.10;;;;;;;8.72;100.00;101097.94;7398902;19;20500;-61
2023/11/22 05:22:37;;;;;;;0.73;0.40;;;;;;;8.94;100.00;101104.53;7397550;19;20015;-61
2023/11/22 05:25:04;;;;;;;0.20;0.20;;;;;;;24.38;56.12;101073.53;7395549;19;20037;-60
2023/11/22 05:27:32;;;;;;;6.60;0.77;;;;;;;12.08;100.00;101106.03;7396900;19;20493;-60
2023/11/22 05:29:58;;;;;;;0.15;0.13;;;;;;;28.72;56.56;101086.56;7397762;19;20007;-61
2023/11/22 05:32:25;;;;;;;0.85;0.40;;;;;;;30.22;35.73;101080.97;7398844;19;20014;-59
2023/11/22 05:34:51;;;;;;;0.40;0.30;;;;;;;25.68;43.25;101083.56;7403048;19;20006;-59
2023/11/22 05:37:18;;;;;;;0.65;0.28;;;;;;;22.73;50.71;101080.00;7398463;19;20360;-59
2023/11/22 05:39:44;;;;;;;0.10;0.10;;;;;;;22.09;52.98;101082.28;7398207;19;20022;-59
2023/11/22 05:42:11;;;;;;;0.75;0.75;;;;;;;21.53;54.63;101078.19;7398145;19;20011;-59
2023/11/22 05:44:37;;;;;;;0.10;0.10;;;;;;;21.18;55.47;101078.09;7398468;19;20053;-59
2023/11/22 05:47:04;;;;;;;0.10;0.10;;;;;;;21.36;55.52;101075.44;7397941;19;20018;-59
2023/11/22 05:49:30;;;;;;;1.13;0.47;;;;;;;22.24;52.35;101077.03;7397931;19;20015;-59
2023/11/22 05:51:56;;;;;;;0.10;0.00;;;;;;;23.16;50.86;101087.31;7400518;19;20010;-59
2023/11/22 05:54:22;;;;;;;0.17;0.08;;;;;;;21.76;53.09;101088.16;7398085;19;20014;-59
2023/11/22 05:56:48;;;;;;;0.20;0.20;;;;;;;21.71;52.97;101086.13;7399011;19;20349;-59
2023/11/22 05:59:14;;;;;;;0.38;0.20;;;;;;;21.88;52.31;101086.81;7397772;19;20348;-59
2023/11/22 06:01:41;;;;;;;0.22;0.22;;;;;;;22.77;52.27;101080.50;7400725;19;20473;-59
2023/11/22 06:04:09;;;;;;;0.10;0.10;;;;;;;24.67;49.15;101075.34;7398108;19;20404;-59
2023/11/22 06:06:36;;;;;;;1.55;0.28;;;;;;;23.52;46.77;101079.41;7396857;19;20352;-59
2023/11/22 06:09:05;;;;;;;0.10;0.10;;;;;;;21.44;52.13;101081.34;7398167;19;20042;-59
2023/11/22 06:11:31;;;;;;;3.50;0.95;;;;;;;21.24;52.62;101090.19;7398850;19;20018;-59
2023/11/22 06:13:57;;;;;;;0.10;0.10;;;;;;;21.62;52.94;101094.91;7394573;19;20027;-59
2023/11/22 06:16:23;;;;;;;1.70;0.55;;;;;;;21.23;53.37;101091.47;7394282;19;20126;-59
2023/11/22 06:18:50;;;;;;;0.10;0.10;;;;;;;21.20;54.22;101086.84;7396816;19;20066;-59
2023/11/22 06:21:17;;;;;;;0.10;0.10;;;;;;;20.60;55.30;101077.91;7400025;19;20527;-59
2023/11/22 06:23:43;;;;;;;0.10;0.10;;;;;;;21.12;54.83;101084.53;7396901;19;20045;-59
2023/11/22 06:26:09;;;;;;;0.32;0.32;;;;;;;21.92;53.41;101081.63;7396380;19;20018;-59
2023/11/22 06:28:35;;;;;;;0.25;0.25;;;;;;;22.29;52.07;101081.91;7396002;19;20014;-59
2023/11/22 06:31:01;;;;;;;0.17;0.17;;;;;;;21.31;54.30;101083.97;7397852;19;20035;-59
2023/11/22 06:33:27;;;;;;;0.10;0.10;;;;;;;21.94;53.46;101087.56;7396243;19;20018;-59
2023/11/22 06:52:46;;;;;;;2.05;0.55;;;;;;;24.14;79.72;101070.81;7424349;19;20298;-78
2023/11/22 06:55:12;;;;;;;0.82;0.47;;;;;;;22.61;58.73;101071.59;7427243;19;20471;-84
2023/11/22 06:57:38;;;;;;;0.85;0.50;;;;;;;27.12;53.91;101062.88;7425589;19;19999;-92
2023/11/22 07:00:06;;;;;;;0.22;0.22;;;;;;;25.69;46.36;101059.41;7425886;19;20021;-84
2023/11/22 07:02:32;;;;;;;0.55;0.30;;;;;;;25.70;47.70;101052.38;7426842;19;20014;-89
2023/11/22 07:05:02;;;;;;;0.10;0.10;;;;;;;21.93;55.24;101068.22;7425496;19;20018;-89
2023/11/22 07:07:29;;;;;;;0.10;0.10;;;;;;;28.65;43.17;101049.31;7427409;19;20002;-89
2023/11/22 07:09:59;;;;;;;0.10;0.00;;;;;;;31.46;37.02;101044.22;7426661;19;20011;-89
2023/11/22 07:12:26;;;;;;;0.10;0.10;;;;;;;25.22;48.06;101062.97;7425632;19;20010;-89
2023/11/22 07:14:53;;;;;;;0.20;0.20;;;;;;;25.63;46.26;101062.38;7427776;19;20017;-89
2023/11/22 07:17:19;;;;;;;0.40;0.40;;;;;;;22.01;50.47;101067.16;7427042;19;20021;-89
2023/11/22 07:19:48;;;;;;;0.75;0.50;;;;;;;21.14;53.83;101073.47;7427529;19;20029;-89
2023/11/22 07:22:16;;;;;;;;;;;;;;;20.76;55.49;101062.97;7427881;19;20029;-85
2023/11/22 07:24:54;;;;;;;5.47;0.55;;;;;;;24.22;53.91;101046.09;7424235;19;19914;-88
2023/11/22 07:27:20;;;;;;;0.80;0.80;;;;;;;23.39;52.92;101039.50;7426699;19;20013;-88
2023/11/22 07:29:47;;;;;;;0.38;0.38;;;;;;;34.87;34.06;101023.41;7425602;19;20014;-89
2023/11/22 07:32:13;;;;;;;0.50;0.32;;;;;;;26.36;45.38;101033.69;7424785;19;20021;-88
2023/11/22 07:34:40;;;;;;;0.20;0.20;;;;;;;31.95;35.76;101033.22;7424634;19;20111;-89
2023/11/22 07:37:07;;;;;;;0.20;0.10;;;;;;;19.92;52.16;101072.69;7423730;19;20030;-88
2023/11/22 07:39:35;;;;;;;0.77;0.20;;;;;;;18.50;58.75;101075.03;7425116;19;20014;-88
2023/11/22 07:42:08;;;;;;;0.55;0.40;;;;;;;17.19;69.72;101064.63;7424629;19;20010;-87
2023/11/22 07:44:37;;;;;;;0.28;0.25;;;;;;;35.97;31.17;101032.28;7423231;19;20006;-87
2023/11/22 07:47:07;;;;;;;6.95;0.85;;;;;;;29.83;33.79;101045.94;7424490;19;20006;-86
2023/11/22 07:49:37;;;;;;;0.90;0.55;;;;;;;18.17;55.82;101063.41;7425459;19;20014;-87
2023/11/22 07:52:04;;;;;;;2.25;0.70;;;;;;;12.86;99.78;101067.44;7426943;19;20421;-87
2023/11/22 07:54:31;;;;;;;0.10;0.00;;;;;;;24.17;79.84;101039.19;7425065;19;20002;-87
2023/11/22 07:56:57;;;;;;;0.50;0.13;;;;;;;14.15;99.90;101067.81;7424378;19;20006;-87
2023/11/22 07:59:23;;;;;;;0.20;0.20;;;;;;;12.01;100.00;101093.13;7424226;19;20035;-86
2023/11/22 08:01:50;;;;;;;0.20;0.20;;;;;;;11.52;100.00;101085.75;7422316;19;20017;-89
2023/11/22 08:04:16;;;;;;;0.32;0.32;;;;;;;29.58;51.07;101064.44;7397061;19;20010;-87
2023/11/22 08:06:43;;;;;;;0.22;0.22;;;;;;;15.42;87.90;101095.28;7396168;19;20010;-87
2023/11/22 08:09:10;;;;;;;1.17;0.82;;;;;;;11.96;100.00;101104.09;7395768;19;20011;-88
2023/11/22 08:11:37;;;;;;;0.75;0.55;;;;;;;10.33;100.00;101108.72;7395053;19;20022;-88
2023/11/22 08:14:03;;;;;;;4.57;1.00;;;;;;;30.98;47.29;101073.31;7397034;19;20050;-88
2023/11/22 08:16:29;;;;;;;1.35;0.95;;;;;;;20.32;92.44;101088.44;7394524;19;20023;-89
2023/11/22 08:18:56;;;;;;;1.83;1.67;;;;;;;34.76;37.11;101075.47;7396290;19;20035;-88
2023/11/22 08:21:23;;;;;;;3.50;1.65;;;;;;;25.19;43.78;101088.94;7396264;19;20114;-88
2023/11/22 08:23:49;;;;;;;1.15;1.08;;;;;;;20.38;56.83;101100.53;7395325;19;20014;-88
2023/11/22 08:26:16;;;;;;;2.10;1.05;;;;;;;23.63;71.92;101089.91;7395216;19;19995;-88
2023/11/22 08:28:42;;;;;;;3.50;1.52;;;;;;;38.97;28.71;101057.88;7396371;19;20768;-88
2023/11/22 08:31:09;;;;;;;3.22;0.77;;;;;;;40.93;25.58;101060.19;7396055;19;20010;-89
2023/11/22 08:33:39;;;;;;;2.95;0.82;;;;;;;41.81;24.12;101063.25;7394969;19;20074;-88
2023/11/22 08:36:06;;;;;;;0.57;0.35;;;;;;;42.31;23.27;101044.00;7395181;19;20353;-87
2023/11/22 08:38:33;;;;;;;2.65;0.93;;;;;;;42.50;23.01;101025.69;7395700;19;20007;-89
2023/11/22 08:41:05;;;;;;;0.93;0.52;;;;;;;38.84;25.49;101020.78;7394512;19;20018;-86
2023/11/22 08:43:31;;;;;;;0.88;0.80;;;;;;;41.73;23.19;101003.63;7393972;19;20002;-86
2023/11/22 08:46:04;;;;;;;0.40;0.40;;;;;;;42.29;22.56;100997.06;7396255;19;20476;-87
2023/11/22 08:48:30;;;;;;;0.13;0.13;;;;;;;42.44;22.42;100993.22;7395419;19;20285;-88
2023/11/22 08:50:57;;;;;;;1.13;1.02;;;;;;;40.87;23.47;100989.78;7396194;19;20023;-87
2023/11/22 08:53:23;;;;;;;0.30;0.30;;;;;;;32.82;29.77;100997.56;7395011;19;20016;-87
2023/11/22 08:55:49;;;;;;;1.88;0.68;;;;;;;26.02;36.61;101005.16;7394031;19;20007;-87
2023/11/22 08:58:15;;;;;;;0.20;0.20;;;;;;;20.89;52.21;101002.97;7396248;19;20011;-88
2023/11/22 09:00:43;;;;;;;1.48;0.93;;;;;;;20.28;59.78;101008.72;7394494;19;20010;-87
2023/11/22 09:03:12;;;;;;;0.95;0.85;;;;;;;22.09;56.00;100994.34;7393492;19;20007;-87
2023/11/22 09:05:42;;;;;;;0.47;0.47;;;;;;;22.30;55.80;100992.63;7395121;19;20020;-87
2023/11/22 09:08:14;;;;;;;4.25;1.50;;;;;;;22.15;56.67;101000.75;7394809;19;20032;-87
2023/11/22 09:10:42;;;;;;;0.15;0.15;;;;;;;38.18;29.83;100992.50;7393033;19;20018;-87
2023/11/22 09:13:09;;;;;;;0.28;0.28;;;;;;;39.02;26.55;100995.50;7393952;19;20030;-88
2023/11/22 09:15:36;;;;;;;0.28;0.28;;;;;;;14.42;100.00;101036.94;7391833;19;20015;-87
2023/11/22 09:18:02;;;;;;;3.30;0.68;;;;;;;33.42;38.47;100977.50;7394353;19;20026;-87
2023/11/22 09:20:29;;;;;;;0.25;0.20;;;;;;;40.39;27.00;100967.16;7392416;19;20014;-87
2023/11/22 09:22:56;;;;;;;0.10;0.00;;;;;;;33.96;28.97;101007.53;7396883;19;20006;-87
2023/11/22 09:25:25;;;;;;;1.48;0.77;;;;;;;41.98;24.93;101000.22;7394854;19;20002;-87
2023/11/22 09:27:58;;;;;;;0.35;0.35;;;;;;;43.28;22.92;100988.88;7392617;19;20041;-87
2023/11/22 09:30:32;;;;;;;0.25;0.25;;;;;;;43.90;22.54;100985.03;7394830;19;20031;-87
2023/11/22 09:32:59;;;;;;;0.47;0.28;;;;;;;44.46;21.62;101005.78;7393801;19;20018;-87
2023/11/22 09:35:26;;;;;;;0.10;0.08;;;;;;;44.55;21.25;101008.28;7394067;19;20007;-88
2023/11/22 09:37:52;;;;;;;0.10;0.00;;;;;;;44.65;20.84;100998.97;7394513;19;20011;-87
2023/11/22 09:40:18;;;;;;;0.10;0.10;;;;;;;44.61;20.78;100993.75;7394550;19;20034;-86
2023/11/22 09:42:51;;;;;;;0.30;0.13;;;;;;;44.98;20.73;101004.31;7393771;19;20014;-87
2023/11/22 09:45:20;;;;;;;1.30;0.50;;;;;;;44.87;20.52;101014.31;7392581;19;20104;-90
2023/11/22 09:47:47;;;;;;;0.30;0.30;;;;;;;44.70;20.42;101009.41;7393994;19;20011;-89
2023/11/22 09:50:26;;;;;;;1.50;0.40;;;;;;;44.58;20.12;100998.06;7393127;19;20013;-89
2023/11/22 09:52:59;;;;;;;0.35;0.10;;;;;;;44.45;20.20;101007.22;7394327;19;20036;-89
2023/11/22 09:55:28;;;;;;;0.25;0.25;;;;;;;44.36;20.60;101015.78;7393820;19;20002;-89
2023/11/22 09:58:02;;;;;;;0.10;0.00;;;;;;;26.48;33.28;101037.03;7392737;19;20029;-89
2023/11/22 10:00:32;;;;;;;0.60;0.52;;;;;;;15.12;97.20;101063.50;7393468;19;20006;-90
2023/11/22 10:02:58;;;;;;;1.27;0.35;;;;;;;12.71;100.00;101055.28;7393883;19;20132;-88
2023/11/22 10:05:24;;;;;;;0.30;0.28;;;;;;;12.79;100.00;101068.53;7392079;19;20022;-89
2023/11/22 10:07:51;;;;;;;3.45;0.22;;;;;;;12.40;100.00;101071.31;7392088;19;20017;-89
2023/11/22 10:10:21;;;;;;;0.10;0.10;;;;;;;11.84;100.00;101046.31;7392175;19;20003;-88
2023/11/22 10:12:48;;;;;;;0.10;0.10;;;;;;;10.68;100.00;101050.38;7392502;19;20477;-89
2023/11/22 10:15:18;;;;;;;0.10;0.10;;;;;;;10.88;100.00;101045.31;7392663;19;20521;-89
2023/11/22 10:18:02;;;;;;;0.40;0.40;;;;;;;9.92;100.00;101053.03;7392790;19;20010;-90
2023/11/22 10:20:36;;;;;;;0.68;0.60;;;;;;;9.82;100.00;101076.41;7392095;19;20018;-91
2023/11/22 10:23:02;;;;;;;1.17;0.20;;;;;;;10.13;100.00;101080.31;7393488;19;20029;-89
2023/11/22 10:25:29;;;;;;;1.23;0.45;;;;;;;10.66;100.00;101048.78;7389752;19;20075;-88
2023/11/22 10:27:55;;;;;;;1.20;0.25;;;;;;;9.62;100.00;101059.88;7393058;19;20014;-87
2023/11/22 10:30:21;;;;;;;2.92;0.52;;;;;;;9.51;100.00;101050.25;7392399;19;20022;-89
2023/11/22 10:32:47;;;;;;;1.35;0.70;;;;;;;9.44;100.00;101045.66;7390790;19;20011;-88
2023/11/22 10:35:17;;;;;;;0.80;0.30;;;;;;;9.43;100.00;101040.56;7392433;19;20024;-89
2023/11/22 10:37:44;;;;;;;0.10;0.00;;;;;;;9.44;100.00;101040.09;7389762;19;20018;-89
2023/11/22 10:40:13;;;;;;;19.23;0.75;;;;;;;9.48;100.00;101031.69;7391927;19;20015;-89
2023/11/22 10:42:42;;;;;;;0.20;0.10;;;;;;;9.51;100.00;101014.88;7391619;19;20013;-89
2023/11/22 10:45:09;;;;;;;0.40;0.40;;;;;;;9.50;100.00;101018.91;7393012;19;20031;-89
2023/11/22 10:47:38;;;;;;;0.98;0.88;;;;;;;9.58;100.00;101005.56;7391853;19;20010;-88
2023/11/22 10:50:08;;;;;;;0.10;0.08;;;;;;;9.65;100.00;101008.16;7392739;19;20070;-88
2023/11/22 10:52:38;;;;;;;0.10;0.00;;;;;;;9.73;100.00;101004.72;7392934;19;20010;-89
2023/11/22 10:55:08;;;;;;;0.63;0.32;;;;;;;9.90;100.00;100997.06;7391159;19;20015;-90
2023/11/22 10:57:47;;;;;;;0.82;0.25;;;;;;;9.91;100.00;100993.06;7391575;19;20078;-89
2023/11/22 11:00:15;;;;;;;0.75;0.47;;;;;;;10.00;100.00;100989.63;7392909;19;20006;-89
2023/11/22 11:02:49;;;;;;;0.22;0.22;;;;;;;10.16;100.00;100987.53;7390226;19;20010;-91
2023/11/22 11:05:18;;;;;;;0.50;0.17;;;;;;;10.23;100.00;100980.97;7390919;19;20070;-91
2023/11/22 11:07:49;;;;;;;0.63;0.25;;;;;;;10.26;100.00;100974.53;7390874;19;20010;-90
2023/11/22 11:10:15;;;;;;;0.20;0.20;;;;;;;10.31;100.00;100971.94;7392288;19;20014;-90
2023/11/22 11:12:43;;;;;;;0.22;0.22;;;;;;;10.36;100.00;100965.81;7391107;19;20042;-91
2023/11/22 11:15:09;;;;;;;0.40;0.30;;;;;;;10.41;100.00;100959.72;7392390;19;20025;-88
2023/11/22 11:17:35;;;;;;;0.63;0.57;;;;;;;10.49;100.00;100949.88;7389420;19;20044;-90
2023/11/22 11:20:05;;;;;;;0.55;0.10;;;;;;;10.55;100.00;100953.66;7390509;19;20017;-87
2023/11/22 11:22:34;;;;;;;0.08;0.00;;;;;;;10.77;100.00;100948.13;7390438;19;20481;-89
2023/11/22 11:25:04;;;;;;;0.10;0.00;;;;;;;10.64;100.00;100945.41;7392350;19;20013;-89
2023/11/22 11:27:33;;;;;;;0.13;0.13;;;;;;;10.68;100.00;100936.16;7390035;19;20018;-87
2023/11/22 11:29:59;;;;;;;0.80;0.50;;;;;;;10.77;100.00;100941.78;7391843;19;20457;-89
2023/11/22 11:32:32;;;;;;;0.17;0.17;;;;;;;10.78;100.00;100948.94;7389087;19;20015;-88
2023/11/22 11:35:00;;;;;;;0.25;0.10;;;;;;;10.72;100.00;100945.91;7390857;19;20006;-87
2023/11/22 11:37:30;;;;;;;0.30;0.10;;;;;;;10.83;100.00;100931.66;7390205;19;20376;-88
2023/11/22 11:39:58;;;;;;;0.20;0.10;;;;;;;10.77;100.00;100930.63;7396766;19;20009;-88
2023/11/22 11:42:24;;;;;;;0.65;0.13;;;;;;;10.79;100.00;100933.75;7395211;19;20010;-88